Time;durP1;ratioP1;P1;durP2;ratioP2;P2;SDS_P1;SDS_P2;PMS_P1;PMS_P2;Temp;Humidity;BMP_temperature;BMP_pressure;BME280_temperature;BME280_humidity;BME280_pressure;Samples;Min_cycle;Max_cycle;Signal;HPM_P1;HPM_P2
2023/01/16 00:00:38;;;;;;;4.72;2.03;;;4.60;95.10;;;;;;5026442;28;20037;-73
2023/01/16 00:03:06;;;;;;;5.18;1.92;;;4.60;95.00;;;;;;5035875;28;20037;-73
2023/01/16 00:05:31;;;;;;;3.70;1.48;;;4.60;95.10;;;;;;5023977;28;20037;-73
2023/01/16 00:07:57;;;;;;;4.47;1.80;;;4.60;94.90;;;;;;5029967;28;20090;-73
2023/01/16 00:10:22;;;;;;;4.22;2.08;;;4.60;94.60;;;;;;5032144;28;20034;-73
2023/01/16 00:12:48;;;;;;;3.95;1.80;;;4.60;94.40;;;;;;5030262;28;20034;-73
2023/01/16 00:15:14;;;;;;;4.45;2.00;;;4.60;94.60;;;;;;5030510;28;20033;-74
2023/01/16 00:17:39;;;;;;;7.28;2.13;;;4.60;94.80;;;;;;5029694;28;20374;-73
2023/01/16 00:20:05;;;;;;;4.53;2.00;;;4.60;94.60;;;;;;5026569;28;20060;-73
2023/01/16 00:22:31;;;;;;;5.95;1.67;;;4.70;94.20;;;;;;5030118;28;20115;-73
2023/01/16 00:24:56;;;;;;;6.60;1.98;;;4.70;94.00;;;;;;5026100;28;20037;-73
2023/01/16 00:27:21;;;;;;;9.63;1.90;;;4.70;93.80;;;;;;5021553;28;20496;-73
2023/01/16 00:29:47;;;;;;;9.27;2.70;;;4.70;93.70;;;;;;5025591;28;20040;-73
2023/01/16 00:32:15;;;;;;;6.82;1.83;;;4.70;93.40;;;;;;5026502;28;20041;-73
2023/01/16 00:34:40;;;;;;;4.13;1.60;;;4.70;93.20;;;;;;5020874;28;20033;-73
2023/01/16 00:37:06;;;;;;;5.45;1.60;;;4.70;93.30;;;;;;5022340;28;20026;-73
2023/01/16 00:39:32;;;;;;;4.90;1.38;;;4.70;93.60;;;;;;5024598;28;20029;-73
2023/01/16 00:41:58;;;;;;;4.93;1.33;;;4.60;93.60;;;;;;5028846;28;20384;-73
2023/01/16 00:44:24;;;;;;;7.07;1.70;;;4.70;93.40;;;;;;5023838;28;20032;-73
2023/01/16 00:46:49;;;;;;;5.35;1.60;;;4.60;93.60;;;;;;5026037;28;20053;-73
2023/01/16 00:49:15;;;;;;;4.50;1.20;;;4.60;93.30;;;;;;5021078;28;20116;-73
2023/01/16 00:51:41;;;;;;;5.60;1.40;;;4.60;93.40;;;;;;5023291;28;20666;-73
2023/01/16 00:54:06;;;;;;;7.70;1.80;;;4.70;93.10;;;;;;5022840;28;20117;-73
2023/01/16 00:56:31;;;;;;;3.42;1.48;;;4.60;93.30;;;;;;5030498;28;20103;-73
2023/01/16 00:58:57;;;;;;;6.80;1.60;;;4.60;93.40;;;;;;5028886;28;20642;-73
2023/01/16 01:01:23;;;;;;;4.72;1.75;;;4.60;93.40;;;;;;5030316;28;20033;-73
2023/01/16 01:03:48;;;;;;;6.15;1.38;;;4.60;93.40;;;;;;5031075;28;20068;-73
2023/01/16 01:06:13;;;;;;;3.55;1.40;;;4.60;93.40;;;;;;5028770;28;20049;-73
2023/01/16 01:08:39;;;;;;;3.25;1.15;;;4.60;93.10;;;;;;5032807;28;20042;-72
2023/01/16 01:11:09;;;;;;;3.53;1.30;;;4.60;93.40;;;;;;5028112;28;20048;-73
2023/01/16 01:13:36;;;;;;;6.38;1.40;;;4.50;93.50;;;;;;5030970;28;20116;-73
2023/01/16 01:16:01;;;;;;;2.92;1.27;;;4.40;93.30;;;;;;5028486;28;20121;-73
2023/01/16 01:18:27;;;;;;;3.47;1.30;;;4.40;93.60;;;;;;5029980;28;20160;-73
2023/01/16 01:20:52;;;;;;;6.10;1.60;;;4.50;93.60;;;;;;5026177;28;20114;-73
2023/01/16 01:23:17;;;;;;;2.63;1.30;;;4.40;93.50;;;;;;5030525;28;20099;-73
2023/01/16 01:25:43;;;;;;;5.78;1.30;;;4.50;93.60;;;;;;5026405;28;20033;-72
2023/01/16 01:28:08;;;;;;;5.68;1.42;;;4.40;93.60;;;;;;5025064;28;20441;-73
2023/01/16 01:30:34;;;;;;;3.17;1.40;;;4.40;93.50;;;;;;5024647;28;20040;-73
2023/01/16 01:33:00;;;;;;;4.80;1.20;;;4.50;93.10;;;;;;5024505;28;20037;-73
2023/01/16 01:35:25;;;;;;;4.70;1.40;;;4.40;93.40;;;;;;5031625;28;20099;-73
2023/01/16 01:37:51;;;;;;;3.03;1.00;;;4.40;93.50;;;;;;5032479;28;20466;-73
2023/01/16 01:40:16;;;;;;;4.45;1.33;;;4.40;93.50;;;;;;5027212;28;20485;-73
2023/01/16 01:42:42;;;;;;;6.30;1.38;;;4.30;93.70;;;;;;5023409;28;20035;-73
2023/01/16 01:45:19;;;;;;;7.00;1.30;;;4.30;94.00;;;;;;5031020;28;20039;-73
2023/01/16 01:47:56;;;;;;;5.85;1.33;;;4.30;94.10;;;;;;5030511;28;20033;-73
2023/01/16 01:50:45;;;;;;;3.38;1.15;;;4.30;94.20;;;;;;5029516;28;20041;-73
2023/01/16 01:53:21;;;;;;;3.75;1.15;;;4.30;94.00;;;;;;5033416;28;20462;-72
2023/01/16 01:55:48;;;;;;;6.60;1.40;;;4.20;94.30;;;;;;5032314;28;20164;-73
2023/01/16 01:58:21;;;;;;;3.30;1.45;;;4.20;94.40;;;;;;5031601;28;20425;-73
2023/01/16 02:00:48;;;;;;;3.03;1.13;;;4.20;94.60;;;;;;5035451;28;20025;-72
2023/01/16 02:03:25;;;;;;;2.85;0.93;;;4.20;94.60;;;;;;5026123;28;20040;-73
2023/01/16 02:05:55;;;;;;;5.10;1.65;;;4.20;94.80;;;;;;5027036;28;20128;-73
2023/01/16 02:08:24;;;;;;;5.18;1.25;;;4.20;94.80;;;;;;5029720;28;20040;-73
2023/01/16 02:10:55;;;;;;;2.33;1.00;;;4.20;94.80;;;;;;5022899;28;20025;-72
2023/01/16 02:13:20;;;;;;;4.93;1.58;;;4.20;94.90;;;;;;5027552;28;20057;-73
2023/01/16 02:21:50;;;;;;;5.05;1.58;;;4.10;95.00;;;;;;5026793;28;20040;-73
2023/01/16 02:24:34;;;;;;;4.53;1.27;;;4.10;95.00;;;;;;5028376;28;20190;-73
2023/01/16 02:27:19;;;;;;;6.85;1.25;;;4.10;95.00;;;;;;5027321;28;20116;-73
2023/01/16 02:30:05;;;;;;;6.53;1.58;;;4.10;95.00;;;;;;5027652;28;20120;-73
2023/01/16 02:32:41;;;;;;;2.20;1.10;;;4.20;95.00;;;;;;5028242;28;20025;-73
2023/01/16 02:35:43;;;;;;;6.57;1.52;;;4.10;95.00;;;;;;5025550;28;20388;-73
2023/01/16 02:38:13;;;;;;;4.30;1.38;;;4.10;95.00;;;;;;5030906;28;20036;-73
2023/01/16 02:40:51;;;;;;;4.47;1.00;;;4.20;94.80;;;;;;5025587;28;20458;-73
2023/01/16 02:43:32;;;;;;;4.03;1.42;;;4.10;94.90;;;;;;5032176;28;20024;-73
2023/01/16 02:46:14;;;;;;;4.13;1.40;;;4.20;94.90;;;;;;5021553;28;20036;-73
2023/01/16 02:48:51;;;;;;;5.05;1.15;;;4.10;95.10;;;;;;5026353;28;20512;-72
2023/01/16 02:51:49;;;;;;;7.13;1.67;;;4.20;95.00;;;;;;5026605;28;20131;-73
2023/01/16 02:54:22;;;;;;;3.58;1.60;;;4.20;94.90;;;;;;5026603;28;20060;-73
2023/01/16 02:56:58;;;;;;;2.80;1.50;;;4.20;94.80;;;;;;5030225;28;20063;-73
2023/01/16 02:59:26;;;;;;;10.50;1.98;;;4.20;94.70;;;;;;5027421;28;20437;-72
2023/01/16 03:01:52;;;;;;;5.63;1.20;;;4.30;94.30;;;;;;5027063;28;20036;-73
2023/01/16 03:04:36;;;;;;;5.47;1.38;;;4.20;94.30;;;;;;5026900;28;20382;-72
2023/01/16 03:07:18;;;;;;;4.25;1.50;;;4.20;94.50;;;;;;5026541;28;20029;-73
2023/01/16 03:10:02;;;;;;;7.50;1.70;;;4.20;94.30;;;;;;5020628;28;20471;-73
2023/01/16 03:12:59;;;;;;;3.72;1.30;;;4.10;94.60;;;;;;5021669;28;20025;-74
2023/01/16 03:15:34;;;;;;;8.20;1.45;;;4.10;94.70;;;;;;5025191;28;20102;-73
2023/01/16 03:18:27;;;;;;;6.32;1.50;;;4.10;94.50;;;;;;5030035;28;20037;-73
2023/01/16 03:21:02;;;;;;;3.38;1.45;;;4.20;94.30;;;;;;5024356;28;20033;-73
2023/01/16 03:23:38;;;;;;;7.18;1.30;;;4.30;94.20;;;;;;5029056;28;20112;-73
2023/01/16 03:26:25;;;;;;;5.40;1.45;;;4.20;94.20;;;;;;5025601;28;20025;-73
2023/01/16 03:29:18;;;;;;;6.95;1.10;;;4.20;94.30;;;;;;5027113;28;20556;-73
2023/01/16 03:31:57;;;;;;;6.35;1.58;;;4.20;94.20;;;;;;5029157;28;20088;-73
2023/01/16 03:34:51;;;;;;;7.80;1.58;;;4.20;94.10;;;;;;5024358;28;20022;-73
2023/01/16 03:37:24;;;;;;;4.88;1.10;;;4.20;94.00;;;;;;5026792;28;20468;-73
2023/01/16 03:39:55;;;;;;;6.35;1.20;;;4.20;93.80;;;;;;5028895;28;20038;-73
2023/01/16 03:42:32;;;;;;;7.82;1.27;;;4.20;93.80;;;;;;5027402;28;20026;-73
2023/01/16 03:45:04;;;;;;;3.78;1.10;;;4.20;93.80;;;;;;5030469;28;20120;-73
2023/01/16 03:47:36;;;;;;;4.68;1.13;;;4.20;93.80;;;;;;5031420;28;20033;-73
2023/01/16 03:50:05;;;;;;;2.28;0.88;;;4.20;93.70;;;;;;5023787;28;20124;-72
2023/01/16 03:52:38;;;;;;;3.80;1.00;;;4.30;93.50;;;;;;5026461;28;20034;-73
2023/01/16 03:55:18;;;;;;;4.57;1.27;;;4.20;93.60;;;;;;5029337;28;20056;-73
2023/01/16 03:57:49;;;;;;;6.35;1.17;;;4.20;93.40;;;;;;5020303;28;20026;-73
2023/01/16 04:00:16;;;;;;;2.05;0.70;;;4.20;93.60;;;;;;5021404;28;20030;-73
2023/01/16 04:02:52;;;;;;;3.47;0.90;;;4.20;93.60;;;;;;5026177;28;20033;-73
2023/01/16 04:05:24;;;;;;;3.53;1.00;;;4.20;93.70;;;;;;5021686;28;20084;-74
2023/01/16 04:08:02;;;;;;;2.25;0.80;;;4.10;93.70;;;;;;5022661;28;20038;-72
2023/01/16 04:10:35;;;;;;;3.40;0.95;;;4.20;93.70;;;;;;5025015;28;20398;-73
2023/01/16 04:13:11;;;;;;;5.00;1.00;;;4.10;93.60;;;;;;5022494;28;20029;-72
2023/01/16 04:15:41;;;;;;;3.08;1.02;;;4.10;93.50;;;;;;5026491;28;20107;-73
2023/01/16 04:18:06;;;;;;;1.90;0.90;;;4.10;93.70;;;;;;5028604;28;20045;-73
2023/01/16 04:20:32;;;;;;;6.35;1.00;;;4.10;93.60;;;;;;5020636;28;20030;-73
2023/01/16 04:22:58;;;;;;;5.93;1.17;;;4.10;93.60;;;;;;5024507;28;20124;-73
2023/01/16 04:25:23;;;;;;;1.63;0.73;;;4.10;93.60;;;;;;5027303;28;20159;-73
2023/01/16 04:27:49;;;;;;;3.95;1.13;;;4.10;93.70;;;;;;5024838;28;20037;-73
2023/01/16 04:30:15;;;;;;;3.22;0.73;;;4.10;93.70;;;;;;5026485;28;20030;-72
2023/01/16 04:32:41;;;;;;;2.85;1.02;;;4.10;93.70;;;;;;5031631;28;20045;-73
2023/01/16 04:35:07;;;;;;;5.05;0.90;;;4.10;93.50;;;;;;5022603;28;20034;-73
2023/01/16 04:37:33;;;;;;;4.38;0.80;;;4.00;93.60;;;;;;5029966;28;20041;-73
2023/01/16 04:39:59;;;;;;;3.75;1.13;;;4.00;93.80;;;;;;5030590;28;20105;-72
2023/01/16 04:42:25;;;;;;;4.10;1.00;;;4.00;93.80;;;;;;5027813;28;20030;-73
2023/01/16 04:44:51;;;;;;;4.72;0.80;;;3.90;94.00;;;;;;5030826;28;20032;-73
2023/01/16 04:47:16;;;;;;;4.20;0.90;;;4.00;93.80;;;;;;5030488;28;20041;-73
2023/01/16 04:49:42;;;;;;;2.00;0.68;;;4.00;93.50;;;;;;5026907;28;20119;-73
2023/01/16 04:52:08;;;;;;;4.72;0.80;;;3.90;93.40;;;;;;5027699;28;20041;-72
2023/01/16 04:54:33;;;;;;;8.75;1.10;;;3.90;93.60;;;;;;5029393;28;20546;-73
2023/01/16 04:57:00;;;;;;;3.88;1.52;;;3.80;93.80;;;;;;5032614;28;20516;-73
2023/01/16 04:59:26;;;;;;;5.03;1.13;;;3.70;94.00;;;;;;5031046;28;20033;-72
2023/01/16 05:01:51;;;;;;;4.90;0.80;;;3.70;94.00;;;;;;5028330;28;20045;-73
2023/01/16 05:04:18;;;;;;;3.00;0.98;;;3.70;94.10;;;;;;5031893;28;20025;-73
2023/01/16 05:06:43;;;;;;;3.58;0.77;;;3.70;94.10;;;;;;5031640;28;20037;-73
2023/01/16 05:09:09;;;;;;;3.78;0.98;;;3.70;94.30;;;;;;5027873;28;20034;-73
2023/01/16 05:11:34;;;;;;;2.90;0.90;;;3.60;94.50;;;;;;5033500;28;20097;-73
2023/01/16 05:14:01;;;;;;;4.25;0.73;;;3.60;94.50;;;;;;5031730;28;20026;-72
2023/01/16 05:16:27;;;;;;;2.83;0.80;;;3.50;94.70;;;;;;5032278;28;20057;-72
2023/01/16 05:18:52;;;;;;;2.20;0.65;;;3.40;94.70;;;;;;5031200;28;20061;-72
2023/01/16 05:21:18;;;;;;;4.78;1.25;;;3.40;95.10;;;;;;5031285;28;20044;-73
2023/01/16 05:23:43;;;;;;;3.65;0.80;;;3.40;95.10;;;;;;5028268;28;20442;-72
2023/01/16 05:26:09;;;;;;;7.32;1.02;;;3.50;95.10;;;;;;5030558;28;20363;-73
2023/01/16 05:28:35;;;;;;;9.25;1.08;;;3.50;95.20;;;;;;5029138;28;20042;-68
2023/01/16 05:31:01;;;;;;;3.72;0.98;;;3.60;95.10;;;;;;5027925;28;20037;-70
2023/01/16 05:33:27;;;;;;;1.70;0.60;;;3.70;95.00;;;;;;5027159;28;20036;-69
2023/01/16 05:35:53;;;;;;;3.45;0.68;;;3.70;94.90;;;;;;5026427;28;20037;-70
2023/01/16 05:38:19;;;;;;;3.28;0.70;;;3.70;95.00;;;;;;5029566;28;20045;-70
2023/01/16 05:40:45;;;;;;;2.47;0.63;;;3.70;94.90;;;;;;5023889;28;20072;-70
2023/01/16 05:43:11;;;;;;;6.07;1.10;;;3.80;94.70;;;;;;5026262;28;20451;-70
2023/01/16 05:45:37;;;;;;;4.05;0.70;;;3.70;94.80;;;;;;5026881;28;20030;-70
2023/01/16 05:48:02;;;;;;;3.42;0.75;;;3.70;94.90;;;;;;5030916;28;20126;-70
2023/01/16 05:50:28;;;;;;;4.22;0.80;;;3.60;94.90;;;;;;5027654;28;20474;-69
2023/01/16 05:52:54;;;;;;;2.65;0.80;;;3.60;95.00;;;;;;5028739;28;20478;-69
2023/01/16 05:55:19;;;;;;;4.82;0.70;;;3.70;94.70;;;;;;5027073;28;20049;-70
2023/01/16 05:57:45;;;;;;;4.47;1.05;;;3.70;94.80;;;;;;5031420;28;20029;-69
2023/01/16 06:00:11;;;;;;;2.53;0.85;;;3.70;94.80;;;;;;5026415;28;20022;-70
2023/01/16 06:02:36;;;;;;;3.40;0.70;;;3.80;94.50;;;;;;5026954;28;20113;-69
2023/01/16 06:05:02;;;;;;;3.38;0.82;;;3.80;94.40;;;;;;5019536;28;20528;-70
2023/01/16 06:07:28;;;;;;;3.08;0.80;;;3.80;94.50;;;;;;5019115;28;20095;-69
2023/01/16 06:09:53;;;;;;;2.38;0.60;;;3.90;94.10;;;;;;5025847;28;20046;-69
2023/01/16 06:12:20;;;;;;;4.13;1.00;;;3.90;94.10;;;;;;5019065;28;20044;-70
2023/01/16 06:14:45;;;;;;;4.13;0.63;;;3.90;93.80;;;;;;5025072;28;20036;-69
2023/01/16 06:17:14;;;;;;;2.38;0.88;;;4.00;93.80;;;;;;5030007;28;20575;-70
2023/01/16 06:19:40;;;;;;;1.65;0.70;;;3.90;94.10;;;;;;5021200;28;20473;-70
2023/01/16 06:22:05;;;;;;;2.80;0.82;;;3.90;93.90;;;;;;5024736;28;20470;-70
2023/01/16 06:24:31;;;;;;;1.65;0.60;;;3.90;94.00;;;;;;5025314;28;20065;-69
2023/01/16 06:26:56;;;;;;;2.20;0.70;;;3.90;93.90;;;;;;5023191;28;20065;-69
2023/01/16 06:29:22;;;;;;;2.88;0.90;;;3.90;93.90;;;;;;5022462;28;20044;-69
2023/01/16 06:31:47;;;;;;;3.17;0.73;;;4.00;93.60;;;;;;5024886;28;20055;-69
2023/01/16 06:34:13;;;;;;;2.35;0.60;;;4.00;93.60;;;;;;5021940;28;20033;-69
2023/01/16 06:36:38;;;;;;;2.35;0.80;;;3.90;93.70;;;;;;5030493;28;20033;-69
2023/01/16 06:39:04;;;;;;;1.85;0.77;;;3.90;93.80;;;;;;5031631;28;20377;-69
2023/01/16 06:41:29;;;;;;;1.58;0.60;;;3.90;93.60;;;;;;5024555;28;20390;-69
2023/01/16 06:43:55;;;;;;;2.65;0.70;;;4.00;93.70;;;;;;5027392;28;20080;-69
2023/01/16 06:46:20;;;;;;;2.08;0.70;;;3.90;93.90;;;;;;5024802;28;20026;-69
2023/01/16 06:48:46;;;;;;;3.97;0.90;;;3.90;93.90;;;;;;5019066;28;20036;-69
2023/01/16 06:51:11;;;;;;;3.15;0.70;;;3.80;93.90;;;;;;5016326;28;20025;-70
2023/01/16 06:53:37;;;;;;;1.80;0.73;;;3.80;94.00;;;;;;5028026;28;20064;-70
2023/01/16 06:56:03;;;;;;;2.00;0.68;;;3.80;94.20;;;;;;5026525;28;20037;-69
2023/01/16 06:58:28;;;;;;;2.85;0.73;;;3.80;94.50;;;;;;5020016;28;20091;-70
2023/01/16 07:00:55;;;;;;;3.00;0.90;;;3.80;94.60;;;;;;5027079;28;20386;-69
2023/01/16 07:03:21;;;;;;;3.60;1.20;;;3.70;94.90;;;;;;5030031;28;20032;-70
2023/01/16 07:05:47;;;;;;;2.72;0.70;;;3.50;95.30;;;;;;5024158;28;20022;-70
2023/01/16 07:08:14;;;;;;;3.63;0.80;;;3.50;95.00;;;;;;5025733;28;20042;-70
2023/01/16 07:10:40;;;;;;;3.78;0.80;;;3.50;95.20;;;;;;5024974;28;20386;-70
2023/01/16 07:13:05;;;;;;;3.05;0.80;;;3.40;95.30;;;;;;5020079;28;20488;-70
2023/01/16 07:24:00;;;;;;;5.25;0.80;;;3.10;95.80;;;;;;5022850;28;20056;-70
2023/01/16 07:26:26;;;;;;;5.00;0.85;;;3.00;95.80;;;;;;5017382;28;20398;-70
2023/01/16 07:28:53;;;;;;;4.22;1.05;;;3.00;96.00;;;;;;5022407;28;20048;-70
2023/01/16 07:31:20;;;;;;;5.97;1.02;;;2.90;96.00;;;;;;5025527;28;20111;-69
2023/01/16 07:33:46;;;;;;;2.28;1.13;;;2.90;96.10;;;;;;5018796;28;20025;-70
2023/01/16 07:36:11;;;;;;;4.78;1.00;;;2.80;96.10;;;;;;5024324;28;20036;-70
2023/01/16 07:38:37;;;;;;;3.38;1.13;;;2.80;96.40;;;;;;5026800;28;20485;-70
2023/01/16 07:41:02;;;;;;;2.17;0.88;;;2.80;96.50;;;;;;5024286;28;20037;-70
2023/01/16 07:43:27;;;;;;;1.95;1.00;;;2.80;96.60;;;;;;5026136;28;20037;-70
2023/01/16 07:45:53;;;;;;;11.45;3.05;;;2.80;96.50;;;;;;5025099;28;20049;-70
2023/01/16 07:48:23;;;;;;;7.00;2.13;;;2.80;96.50;;;;;;5022282;28;20403;-70
2023/01/16 07:50:56;;;;;;;2.45;1.50;;;2.80;96.50;;;;;;5022447;28;20120;-70
2023/01/16 07:53:23;;;;;;;4.45;1.20;;;2.70;96.60;;;;;;5020558;28;20033;-70
2023/01/16 07:55:50;;;;;;;3.30;1.00;;;2.60;96.60;;;;;;5020766;28;20033;-70
2023/01/16 07:58:16;;;;;;;1.15;0.77;;;2.70;96.80;;;;;;5021888;28;20109;-70
2023/01/16 08:00:43;;;;;;;4.30;1.42;;;2.70;96.80;;;;;;5026538;28;20037;-70
2023/01/16 08:03:08;;;;;;;5.13;1.00;;;2.70;96.60;;;;;;5028826;28;20048;-70
2023/01/16 08:05:34;;;;;;;3.15;1.30;;;2.80;96.50;;;;;;5021154;28;20034;-70
2023/01/16 08:07:59;;;;;;;5.78;1.15;;;2.80;96.40;;;;;;5022600;28;20935;-70
2023/01/16 08:10:25;;;;;;;5.28;0.82;;;2.90;96.40;;;;;;5019279;28;20041;-70
2023/01/16 08:12:50;;;;;;;2.00;1.02;;;2.90;96.40;;;;;;5022322;28;20025;-70
2023/01/16 08:15:16;;;;;;;5.57;1.38;;;2.80;96.40;;;;;;5026275;28;20533;-70
2023/01/16 08:17:41;;;;;;;2.55;1.58;;;2.80;96.40;;;;;;5021807;28;20382;-71
2023/01/16 08:20:08;;;;;;;5.88;1.10;;;2.80;96.40;;;;;;5021768;28;20045;-70
2023/01/16 08:22:34;;;;;;;5.95;1.20;;;2.80;96.50;;;;;;5014366;28;20057;-70
2023/01/16 08:24:59;;;;;;;6.55;1.63;;;2.90;96.50;;;;;;5022668;28;20029;-70
2023/01/16 08:27:24;;;;;;;2.20;1.25;;;2.90;96.30;;;;;;5027366;28;20038;-70
2023/01/16 08:29:50;;;;;;;4.10;1.25;;;2.90;96.40;;;;;;5028585;28;20038;-70
2023/01/16 08:32:15;;;;;;;7.78;1.40;;;2.90;96.30;;;;;;5023160;28;20092;-70
2023/01/16 08:34:42;;;;;;;6.60;1.30;;;2.90;96.30;;;;;;5021090;28;20466;-70
2023/01/16 08:37:10;;;;;;;3.58;1.23;;;2.90;96.30;;;;;;5021965;28;20080;-70
2023/01/16 08:39:36;;;;;;;3.92;1.50;;;3.00;96.30;;;;;;5018926;28;20025;-70
2023/01/16 08:53:03;;;;;;;6.57;1.48;;;3.10;95.90;;;;;;5021864;28;20513;-70
2023/01/16 08:55:29;;;;;;;5.72;1.35;;;3.10;95.90;;;;;;5027087;28;20075;-70
2023/01/16 08:57:58;;;;;;;2.38;1.05;;;3.20;95.80;;;;;;5026206;28;20041;-69
2023/01/16 09:00:24;;;;;;;3.22;1.10;;;3.20;95.70;;;;;;5019543;28;20029;-70
2023/01/16 09:02:50;;;;;;;3.92;0.90;;;3.30;95.60;;;;;;5021277;28;20406;-70
2023/01/16 09:05:15;;;;;;;2.08;0.82;;;3.30;95.50;;;;;;5018614;28;20038;-70
2023/01/16 09:07:41;;;;;;;7.25;1.35;;;3.30;95.40;;;;;;5018473;28;20041;-70
2023/01/16 09:10:07;;;;;;;4.45;1.30;;;3.40;95.40;;;;;;5024359;28;20037;-70
2023/01/16 09:15:16;;;;;;;2.15;0.88;;;3.40;95.20;;;;;;5022253;28;20171;-70
2023/01/16 09:17:42;;;;;;;6.25;1.30;;;3.40;95.30;;;;;;5025768;28;20463;-70
2023/01/16 09:20:08;;;;;;;1.75;0.88;;;3.50;95.20;;;;;;5024217;28;20385;-70
2023/01/16 09:22:34;;;;;;;1.95;0.82;;;3.50;95.30;;;;;;5029436;28;20038;-70
2023/01/16 09:24:59;;;;;;;4.68;0.85;;;3.50;95.10;;;;;;5023897;28;20111;-70
2023/01/16 09:27:25;;;;;;;5.05;1.10;;;3.60;95.10;;;;;;5028361;28;20064;-70
2023/01/16 09:29:51;;;;;;;3.92;1.35;;;3.60;95.10;;;;;;5026617;28;20414;-70
2023/01/16 09:32:18;;;;;;;2.08;0.90;;;3.70;94.90;;;;;;5025822;28;20034;-70
2023/01/16 09:34:44;;;;;;;2.15;1.15;;;3.80;94.90;;;;;;5026110;28;20092;-70
2023/01/16 09:37:10;;;;;;;1.75;1.00;;;3.80;94.50;;;;;;5028551;28;20033;-70
2023/01/16 09:39:37;;;;;;;1.95;0.90;;;3.90;94.50;;;;;;5019636;28;20108;-69
2023/01/16 09:45:16;;;;;;;4.25;1.05;;;4.00;94.40;;;;;;5026935;28;20103;-70
2023/01/16 09:47:45;;;;;;;4.70;1.20;;;4.10;93.80;;;;;;5022598;28;20025;-69
2023/01/16 09:50:30;;;;;;;3.08;1.15;;;4.10;93.80;;;;;;5023268;28;20489;-69
2023/01/16 09:58:36;;;;;;;2.50;0.90;;;4.40;93.20;;;;;;5022882;28;20064;-70
2023/01/16 10:01:08;;;;;;;1.75;1.13;;;4.50;93.30;;;;;;5025583;28;20035;-70
2023/01/16 10:03:41;;;;;;;4.82;1.17;;;4.60;93.10;;;;;;5023509;28;20100;-70
2023/01/16 10:06:30;;;;;;;3.05;0.90;;;4.60;92.70;;;;;;5024366;28;20026;-69
2023/01/16 10:09:19;;;;;;;4.75;1.13;;;4.70;92.70;;;;;;5026666;28;20045;-70
2023/01/16 10:12:01;;;;;;;2.47;0.88;;;4.80;92.40;;;;;;5015181;28;20033;-69
2023/01/16 10:14:51;;;;;;;4.32;1.40;;;4.80;92.10;;;;;;5026462;28;20609;-69
2023/01/16 10:17:54;;;;;;;1.75;0.60;;;4.90;91.80;;;;;;5028047;28;20036;-70
2023/01/16 10:20:51;;;;;;;5.15;1.20;;;5.00;91.50;;;;;;5022824;28;20369;-70
2023/01/16 10:23:39;;;;;;;8.95;1.42;;;5.00;91.50;;;;;;5022103;28;20054;-69
2023/01/16 10:26:12;;;;;;;3.15;0.80;;;5.10;91.20;;;;;;5024737;28;20397;-70
2023/01/16 10:29:13;;;;;;;3.45;1.02;;;5.10;91.10;;;;;;5044176;28;20041;-70
2023/01/16 10:31:48;;;;;;;2.30;1.05;;;5.00;90.70;;;;;;5025538;28;20022;-70
2023/01/16 10:34:25;;;;;;;3.78;1.02;;;5.00;90.90;;;;;;5022570;28;20034;-70
2023/01/16 10:36:54;;;;;;;2.20;0.85;;;5.10;91.20;;;;;;5024347;28;20026;-70
2023/01/16 10:39:21;;;;;;;4.20;1.00;;;5.00;91.00;;;;;;5021295;28;20444;-70
2023/01/16 10:50:26;;;;;;;2.92;1.00;;;4.90;90.50;;;;;;5022426;28;20075;-70
2023/01/16 10:52:53;;;;;;;5.50;0.98;;;4.90;91.00;;;;;;5027571;28;20042;-69
2023/01/16 10:55:18;;;;;;;3.40;1.13;;;4.90;90.80;;;;;;5021922;28;20033;-70
2023/01/16 10:58:24;;;;;;;4.15;0.93;;;4.90;90.80;;;;;;5029638;28;20383;-70
2023/01/16 11:00:51;;;;;;;4.80;0.90;;;4.90;90.40;;;;;;5019520;28;20045;-70
2023/01/16 11:03:37;;;;;;;4.78;0.98;;;4.90;90.00;;;;;;5024756;28;20030;-70
2023/01/16 11:06:08;;;;;;;5.90;1.08;;;5.00;90.50;;;;;;5026168;28;20489;-69
2023/01/16 11:08:35;;;;;;;2.85;0.85;;;5.00;89.40;;;;;;5022303;28;20036;-69
2023/01/16 11:11:01;;;;;;;8.43;2.55;;;5.10;89.50;;;;;;5023971;28;20132;-70
2023/01/16 11:19:14;;;;;;;1.58;0.80;;;5.10;89.40;;;;;;5018930;28;20533;-70
2023/01/16 11:21:42;;;;;;;2.28;0.85;;;5.20;89.80;;;;;;5019052;28;20034;-70
2023/01/16 11:24:15;;;;;;;4.57;1.00;;;5.20;89.80;;;;;;5025172;28;20735;-70
2023/01/16 11:26:47;;;;;;;5.47;1.17;;;5.30;89.30;;;;;;5021785;28;20104;-70
2023/01/16 11:29:16;;;;;;;3.25;1.00;;;5.30;88.80;;;;;;5019110;28;20046;-70
2023/01/16 11:31:51;;;;;;;5.27;1.23;;;5.40;89.10;;;;;;5016059;28;20053;-70
2023/01/16 11:34:17;;;;;;;1.30;0.63;;;5.50;88.50;;;;;;5029117;28;20416;-70
2023/01/16 11:36:43;;;;;;;1.67;0.80;;;5.50;88.10;;;;;;5024097;28;20349;-70
2023/01/16 11:39:21;;;;;;;3.63;0.60;;;5.60;88.10;;;;;;5019999;28;20021;-70
2023/01/16 11:41:50;;;;;;;2.55;0.80;;;5.60;87.80;;;;;;5025942;28;20033;-70
2023/01/16 11:47:05;;;;;;;4.05;0.85;;;5.60;87.50;;;;;;5022781;28;20107;-69
2023/01/16 11:49:38;;;;;;;2.08;0.70;;;5.60;87.80;;;;;;5020822;28;20045;-69
2023/01/16 11:52:04;;;;;;;2.90;0.90;;;5.60;87.00;;;;;;5022437;28;20123;-70
2023/01/16 11:54:34;;;;;;;4.80;1.20;;;5.70;86.30;;;;;;5028895;28;20038;-70
2023/01/16 11:57:23;;;;;;;2.50;0.80;;;5.80;87.10;;;;;;5021351;28;20416;-69
2023/01/16 12:00:00;;;;;;;2.00;0.60;;;5.80;86.40;;;;;;5013875;28;20358;-70
2023/01/16 12:03:03;;;;;;;2.97;0.75;;;5.80;85.90;;;;;;5023137;28;20022;-69
2023/01/16 12:05:56;;;;;;;3.92;0.95;;;5.80;86.00;;;;;;5022411;28;20516;-70
2023/01/16 12:08:52;;;;;;;6.28;1.35;;;5.80;85.60;;;;;;5022897;28;20042;-70
2023/01/16 12:11:26;;;;;;;2.28;0.70;;;5.80;86.00;;;;;;5020117;28;20026;-69
2023/01/16 12:14:22;;;;;;;2.30;0.90;;;5.80;86.00;;;;;;5028200;28;20033;-69
2023/01/16 12:16:54;;;;;;;2.70;0.73;;;5.80;86.40;;;;;;5025367;28;20034;-70
2023/01/16 12:19:37;;;;;;;1.67;0.65;;;5.80;85.80;;;;;;5021582;28;20072;-69
2023/01/16 12:22:31;;;;;;;2.00;0.80;;;5.80;85.80;;;;;;5025562;28;20494;-69
2023/01/16 12:25:01;;;;;;;1.77;0.80;;;5.80;85.80;;;;;;5022286;28;20382;-69
2023/01/16 12:28:05;;;;;;;3.25;0.60;;;5.70;85.70;;;;;;5020904;28;20063;-69
2023/01/16 12:31:10;;;;;;;2.13;0.70;;;5.70;85.90;;;;;;5023530;28;20041;-69
2023/01/16 12:33:39;;;;;;;2.28;0.88;;;5.70;85.90;;;;;;5021367;28;20776;-69
2023/01/16 12:36:32;;;;;;;5.00;0.85;;;5.70;86.30;;;;;;5019383;28;20044;-69
2023/01/16 12:39:18;;;;;;;2.95;0.82;;;5.70;86.10;;;;;;5021755;28;20030;-70
2023/01/16 12:45:36;;;;;;;3.75;1.23;;;5.60;86.00;;;;;;5019385;28;20087;-70
2023/01/16 12:48:29;;;;;;;3.50;0.80;;;5.60;85.90;;;;;;5023817;28;20092;-70
2023/01/16 12:51:21;;;;;;;2.00;0.60;;;5.60;85.80;;;;;;5020630;28;20030;-69
2023/01/16 12:54:16;;;;;;;2.75;0.75;;;5.50;86.50;;;;;;5027160;28;20033;-70
2023/01/16 12:56:57;;;;;;;2.03;0.57;;;5.60;86.60;;;;;;5024169;28;20351;-70
2023/01/16 12:59:32;;;;;;;4.10;0.93;;;5.50;86.10;;;;;;5022563;28;20037;-70
2023/01/16 13:02:20;;;;;;;4.30;0.88;;;5.50;86.20;;;;;;5027761;28;20033;-70
2023/01/16 13:05:00;;;;;;;4.20;0.65;;;5.60;86.30;;;;;;5022940;28;20123;-70
2023/01/16 13:07:31;;;;;;;2.58;0.75;;;5.60;86.50;;;;;;5025692;28;20402;-70
2023/01/16 13:13:20;;;;;;;1.17;0.50;;;5.60;86.80;;;;;;5023368;28;20022;-69
2023/01/16 13:15:41;;;;;;;1.83;0.70;;;5.60;86.10;;;;;;5020475;28;20040;-69
2023/01/16 13:18:27;;;;;;;2.15;0.65;;;5.70;85.90;;;;;;5028362;28;20184;-69
2023/01/16 13:20:57;;;;;;;1.13;0.50;;;5.70;85.60;;;;;;5020708;28;20056;-69
2023/01/16 13:23:32;;;;;;;2.08;0.60;;;5.70;86.00;;;;;;5026627;28;20050;-68
2023/01/16 13:26:05;;;;;;;2.03;0.63;;;5.70;85.80;;;;;;5026959;28;20044;-68
2023/01/16 13:28:59;;;;;;;1.95;0.77;;;5.70;85.40;;;;;;5024439;28;20091;-69
2023/01/16 13:31:45;;;;;;;3.35;0.90;;;5.70;85.10;;;;;;5018457;28;20040;-68
2023/01/16 13:34:19;;;;;;;1.60;0.60;;;5.70;85.30;;;;;;5023079;28;20021;-69
2023/01/16 13:37:12;;;;;;;1.63;0.60;;;5.70;85.40;;;;;;5028678;28;20045;-69
2023/01/16 13:39:59;;;;;;;2.28;0.70;;;5.70;85.50;;;;;;5025668;28;20033;-68
2023/01/16 13:42:25;;;;;;;2.05;0.88;;;5.60;84.90;;;;;;5028733;28;20025;-68
2023/01/16 13:47:44;;;;;;;4.22;1.38;;;5.60;85.20;;;;;;5027373;28;20116;-68
2023/01/16 13:50:27;;;;;;;3.88;1.60;;;5.50;85.40;;;;;;5025369;28;20083;-69
2023/01/16 13:53:07;;;;;;;3.67;1.00;;;5.50;85.40;;;;;;5024203;28;20022;-68
2023/01/16 13:55:35;;;;;;;2.50;0.52;;;5.50;85.60;;;;;;5029497;28;20075;-69
2023/01/16 13:58:25;;;;;;;1.13;0.50;;;5.50;85.30;;;;;;5028783;28;20029;-68
2023/01/16 14:01:00;;;;;;;3.67;1.10;;;5.50;85.50;;;;;;5027375;28;20026;-69
2023/01/16 14:03:28;;;;;;;2.33;0.73;;;5.50;85.20;;;;;;5018154;28;20032;-69
2023/01/16 14:06:09;;;;;;;1.60;0.65;;;5.60;85.10;;;;;;5017614;28;20109;-68
2023/01/16 14:09:11;;;;;;;2.08;0.70;;;5.60;85.20;;;;;;5026942;28;20454;-68
2023/01/16 14:11:41;;;;;;;1.05;0.52;;;5.50;85.40;;;;;;5023978;28;20057;-68
2023/01/16 14:17:28;;;;;;;0.88;0.63;;;5.50;85.10;;;;;;5017746;28;20547;-68
2023/01/16 14:19:55;;;;;;;2.45;0.90;;;5.50;85.10;;;;;;5023469;28;20550;-69
2023/01/16 14:24:56;;;;;;;2.17;0.75;;;5.50;85.30;;;;;;5032456;28;20490;-68
2023/01/16 14:27:36;;;;;;;3.90;1.17;;;5.50;84.90;;;;;;5029360;28;20029;-68
2023/01/16 14:30:04;;;;;;;2.30;0.70;;;5.50;84.60;;;;;;5029532;28;20088;-68